Time;durP1;ratioP1;P1;durP2;ratioP2;P2;SDS_P1;SDS_P2;PMS_P1;PMS_P2;Temp;Humidity;BMP_temperature;BMP_pressure;BME280_temperature;BME280_humidity;BME280_pressure;Samples;Min_cycle;Max_cycle;Signal;HPM_P1;HPM_P2
2022/02/22 00:07:53;;;;;;;13.57;2.53;;;6.00;99.90;;;;;;20653629;28;20041;-46
2022/02/22 00:17:54;;;;;;;18.80;1.10;;;6.00;99.90;;;;;;20669019;28;20138;-46
2022/02/22 00:27:56;;;;;;;6.82;0.95;;;5.90;99.90;;;;;;20653246;28;20204;-45
2022/02/22 00:37:57;;;;;;;2.53;0.90;;;5.80;99.90;;;;;;20656044;28;20231;-46
2022/02/22 00:47:58;;;;;;;3.78;0.88;;;5.70;99.90;;;;;;20652833;28;20026;-46
2022/02/22 00:57:59;;;;;;;14.25;1.77;;;5.70;99.90;;;;;;20659659;28;20054;-46
2022/02/22 01:08:02;;;;;;;9.88;1.27;;;5.60;99.90;;;;;;20663119;28;20030;-46
2022/02/22 01:18:03;;;;;;;15.02;2.03;;;5.60;99.90;;;;;;20656217;28;20085;-45
2022/02/22 01:28:04;;;;;;;13.40;1.55;;;5.50;99.90;;;;;;20662534;28;20529;-46
2022/02/22 01:38:05;;;;;;;6.57;1.17;;;5.40;99.90;;;;;;20664839;28;20064;-46
2022/02/22 01:48:06;;;;;;;4.88;1.08;;;5.30;99.90;;;;;;20666924;28;20061;-46
2022/02/22 01:58:08;;;;;;;13.00;2.60;;;5.20;99.90;;;;;;20673963;28;20050;-46
2022/02/22 02:08:09;;;;;;;3.55;0.82;;;5.20;99.90;;;;;;20663651;28;20601;-46
2022/02/22 02:18:10;;;;;;;5.03;0.50;;;5.10;99.90;;;;;;20661789;28;20421;-46
2022/02/22 02:28:11;;;;;;;4.65;2.10;;;5.00;99.90;;;;;;20670013;28;20048;-46
2022/02/22 02:38:12;;;;;;;6.18;1.23;;;4.80;99.90;;;;;;20658425;28;21370;-46
2022/02/22 02:48:13;;;;;;;6.68;1.23;;;4.70;99.90;;;;;;20666600;28;20034;-46
2022/02/22 02:58:14;;;;;;;5.25;1.33;;;4.60;99.90;;;;;;20662219;28;20050;-46
2022/02/22 03:08:15;;;;;;;3.30;0.65;;;4.50;99.90;;;;;;20658943;28;20401;-46
2022/02/22 03:18:16;;;;;;;4.72;0.77;;;4.50;99.90;;;;;;20663130;28;20054;-46
2022/02/22 03:28:18;;;;;;;3.78;0.50;;;4.50;99.90;;;;;;20657417;28;20033;-46
2022/02/22 03:38:19;;;;;;;6.10;2.35;;;4.50;99.90;;;;;;20647268;28;20045;-46
2022/02/22 03:48:21;;;;;;;2.70;0.85;;;4.50;99.90;;;;;;20659616;28;20410;-46
2022/02/22 03:58:22;;;;;;;3.35;0.77;;;4.50;99.90;;;;;;20657844;28;20045;-46
2022/02/22 04:08:23;;;;;;;13.02;0.60;;;4.50;99.90;;;;;;20657278;28;20038;-45
2022/02/22 04:18:24;;;;;;;3.53;0.52;;;4.50;99.90;;;;;;20660791;28;20042;-46
2022/02/22 04:28:25;;;;;;;1.38;0.52;;;4.50;99.90;;;;;;20658271;28;20050;-46
2022/02/22 04:38:26;;;;;;;4.95;1.00;;;4.50;99.90;;;;;;20651753;28;20060;-46
2022/02/22 04:48:27;;;;;;;4.00;0.75;;;4.50;99.90;;;;;;20654114;28;20586;-46
2022/02/22 04:58:28;;;;;;;5.78;0.75;;;4.50;99.90;;;;;;20654943;28;20049;-46
2022/02/22 05:08:29;;;;;;;3.50;2.35;;;4.40;99.90;;;;;;20676863;28;20046;-46
2022/02/22 05:18:31;;;;;;;11.10;1.38;;;4.40;99.90;;;;;;20667525;28;20524;-46
2022/02/22 05:28:32;;;;;;;3.97;0.82;;;4.50;99.90;;;;;;20665351;28;20406;-46
2022/02/22 05:38:33;;;;;;;3.30;0.47;;;4.50;99.90;;;;;;20654970;28;20053;-46
2022/02/22 05:48:34;;;;;;;5.32;0.68;;;4.40;99.90;;;;;;20661614;28;20038;-46
2022/02/22 05:58:35;;;;;;;1.55;0.68;;;4.50;99.90;;;;;;20658510;28;20053;-46
2022/02/22 06:08:37;;;;;;;13.48;1.45;;;4.70;99.90;;;;;;20660223;28;20037;-46
2022/02/22 06:18:38;;;;;;;3.92;0.77;;;4.80;99.90;;;;;;20658747;28;20046;-46
2022/02/22 06:28:39;;;;;;;3.17;0.77;;;4.90;99.90;;;;;;20657803;28;20524;-46
2022/02/22 06:38:40;;;;;;;10.30;0.95;;;5.10;99.90;;;;;;20659952;28;20049;-46
2022/02/22 06:48:41;;;;;;;3.03;0.80;;;5.20;99.90;;;;;;20654120;28;20038;-46
2022/02/22 06:58:43;;;;;;;3.60;1.15;;;5.20;99.90;;;;;;20652349;28;20042;-46
2022/02/22 07:08:46;;;;;;;7.68;1.08;;;5.10;99.90;;;;;;20650545;28;20038;-46
2022/02/22 07:18:47;;;;;;;4.10;1.25;;;4.90;99.90;;;;;;20643305;28;20038;-46
2022/02/22 07:28:48;;;;;;;3.67;1.10;;;5.00;99.90;;;;;;20659297;28;20389;-46
2022/02/22 07:38:49;;;;;;;7.07;1.83;;;5.00;99.90;;;;;;20642459;28;20073;-46
2022/02/22 07:48:50;;;;;;;6.93;1.00;;;5.10;99.90;;;;;;20639928;28;20030;-46
2022/02/22 07:58:53;;;;;;;3.47;0.77;;;5.20;99.90;;;;;;20631694;28;20664;-46
2022/02/22 08:08:54;;;;;;;8.98;1.88;;;5.30;99.90;;;;;;20637525;28;20030;-46
2022/02/22 08:19:01;;;;;;;5.88;1.00;;;5.50;99.90;;;;;;20635763;28;20046;-46
2022/02/22 08:29:02;;;;;;;9.57;1.47;;;5.70;99.90;;;;;;20638297;28;20042;-46
2022/02/22 08:39:03;;;;;;;3.38;0.88;;;6.00;99.90;;;;;;20634518;28;20046;-46
2022/02/22 08:49:04;;;;;;;5.55;1.27;;;6.30;99.90;;;;;;20629866;28;20050;-46
2022/02/22 08:59:05;;;;;;;12.77;2.22;;;6.50;99.90;;;;;;20635421;28;20043;-46
2022/02/22 09:09:06;;;;;;;9.32;1.63;;;6.70;99.90;;;;;;20621285;28;20042;-46
2022/02/22 09:19:07;;;;;;;4.72;1.52;;;6.90;99.90;;;;;;20641780;28;20309;-47
2022/02/22 09:29:08;;;;;;;7.13;1.67;;;7.00;99.90;;;;;;20632101;28;20418;-46
2022/02/22 09:39:09;;;;;;;6.47;1.90;;;7.20;99.90;;;;;;20641580;28;20042;-46
2022/02/22 09:49:13;;;;;;;12.48;3.05;;;7.10;99.90;;;;;;20640949;28;20045;-47
2022/02/22 09:59:15;;;;;;;5.40;1.95;;;7.20;99.90;;;;;;20649407;28;20383;-47
2022/02/22 10:09:17;;;;;;;14.55;2.58;;;7.30;99.90;;;;;;20648838;28;20038;-47
2022/02/22 10:19:19;;;;;;;6.53;1.95;;;7.40;99.90;;;;;;20638878;28;20061;-47
2022/02/22 10:29:23;;;;;;;8.35;2.15;;;7.50;99.90;;;;;;20643607;28;20061;-47
2022/02/22 10:39:24;;;;;;;9.38;2.67;;;7.70;99.90;;;;;;20647253;28;20252;-46
2022/02/22 10:49:35;;;;;;;9.05;1.83;;;7.70;99.90;;;;;;20652500;28;20309;-46
2022/02/22 10:59:36;;;;;;;7.05;1.92;;;7.50;99.90;;;;;;20656575;28;20049;-47
2022/02/22 11:09:40;;;;;;;17.10;2.50;;;7.40;99.90;;;;;;20645398;28;20759;-47
2022/02/22 11:19:41;;;;;;;20.75;2.40;;;7.40;99.90;;;;;;20637743;28;20503;-46
2022/02/22 11:29:42;;;;;;;13.82;2.65;;;7.50;99.90;;;;;;20645832;28;20038;-47
2022/02/22 11:39:54;;;;;;;6.38;2.08;;;7.70;99.90;;;;;;20643728;28;20046;-47
2022/02/22 11:49:57;;;;;;;9.60;2.65;;;8.00;99.90;;;;;;20640431;28;20049;-47
2022/02/22 12:00:01;;;;;;;8.40;2.30;;;8.10;99.90;;;;;;20598039;28;20039;-47
2022/02/22 12:10:07;;;;;;;10.00;2.83;;;8.40;99.90;;;;;;20641201;28;20042;-47
2022/02/22 12:20:08;;;;;;;11.50;2.42;;;8.50;99.90;;;;;;20642523;28;20053;-47
2022/02/22 12:30:09;;;;;;;15.30;2.58;;;8.70;99.90;;;;;;20639325;28;20042;-47
2022/02/22 12:40:12;;;;;;;6.18;1.88;;;9.00;99.90;;;;;;20647605;28;20038;-47
2022/02/22 12:50:14;;;;;;;19.15;2.53;;;9.30;99.90;;;;;;20639921;28;20058;-47
2022/02/22 13:00:18;;;;;;;5.32;1.90;;;9.30;99.90;;;;;;20649592;28;20695;-47
2022/02/22 13:10:21;;;;;;;4.32;2.05;;;9.40;99.90;;;;;;20657708;28;20042;-47
2022/02/22 13:20:22;;;;;;;7.28;1.85;;;9.50;99.90;;;;;;20659694;28;20046;-47
2022/02/22 13:30:23;;;;;;;8.93;1.73;;;9.60;99.90;;;;;;20654513;28;20061;-47
2022/02/22 13:40:27;;;;;;;7.70;1.83;;;9.70;99.90;;;;;;20661682;28;20606;-48
2022/02/22 13:50:30;;;;;;;8.77;1.60;;;9.90;99.90;;;;;;20664795;28;20043;-47
2022/02/22 14:00:45;;;;;;;2.97;1.10;;;10.10;99.90;;;;;;20658889;28;20050;-48
2022/02/22 14:10:47;;;;;;;8.73;1.33;;;10.30;99.90;;;;;;20658110;28;20038;-48
2022/02/22 14:20:48;;;;;;;4.00;1.40;;;10.40;99.90;;;;;;20666093;28;20053;-47
2022/02/22 14:30:50;;;;;;;4.15;2.42;;;10.60;99.90;;;;;;20664788;28;20041;-47
2022/02/22 14:40:51;;;;;;;9.27;1.63;;;10.70;99.90;;;;;;20661874;28;20224;-47
2022/02/22 14:50:53;;;;;;;5.15;1.17;;;10.50;99.90;;;;;;20668668;28;20037;-47
2022/02/22 15:00:54;;;;;;;5.32;1.50;;;10.40;99.90;;;;;;20664010;28;20050;-47
2022/02/22 15:10:56;;;;;;;9.85;2.67;;;10.20;99.90;;;;;;20662478;28;20036;-47
2022/02/22 15:20:57;;;;;;;19.58;3.22;;;10.10;99.90;;;;;;20649718;28;20050;-47
2022/02/22 15:31:00;;;;;;;12.32;2.17;;;9.90;99.90;;;;;;20602097;28;20030;-47
2022/02/22 15:41:02;;;;;;;7.05;1.63;;;9.80;99.90;;;;;;20613834;28;20061;-46
2022/02/22 15:51:04;;;;;;;9.55;2.25;;;9.80;99.90;;;;;;20647942;28;20402;-47
2022/02/22 16:01:05;;;;;;;13.27;2.28;;;9.80;99.90;;;;;;20648009;28;20045;-47
2022/02/22 16:11:06;;;;;;;8.63;2.20;;;9.80;99.90;;;;;;20650789;28;20038;-47
2022/02/22 16:21:10;;;;;;;11.95;2.38;;;9.90;99.90;;;;;;20650608;28;20569;-47
2022/02/22 16:31:13;;;;;;;12.35;3.33;;;10.00;99.90;;;;;;20648660;28;20550;-46
2022/02/22 16:41:15;;;;;;;11.98;2.25;;;10.00;99.90;;;;;;20655215;28;21290;-47
2022/02/22 16:51:16;;;;;;;10.05;1.85;;;9.90;99.90;;;;;;20671518;28;20034;-47
2022/02/22 17:01:17;;;;;;;8.70;1.55;;;9.90;99.90;;;;;;20675775;28;20053;-46
2022/02/22 17:11:18;;;;;;;15.25;2.83;;;9.90;99.90;;;;;;20691177;28;20061;-46
2022/02/22 17:21:19;;;;;;;7.22;2.30;;;9.50;99.90;;;;;;20682722;28;20120;-46
2022/02/22 17:31:20;;;;;;;8.63;1.42;;;9.10;99.90;;;;;;20673441;28;20038;-46
2022/02/22 17:41:22;;;;;;;2.15;0.75;;;9.00;99.90;;;;;;20678003;28;20383;-47
2022/02/22 17:51:23;;;;;;;5.82;1.33;;;8.60;99.90;;;;;;20663723;28;20046;-46
2022/02/22 18:01:28;;;;;;;4.15;0.70;;;8.20;99.90;;;;;;20654174;28;20080;-47
2022/02/22 18:11:30;;;;;;;2.53;1.13;;;7.90;99.90;;;;;;20685618;28;20033;-46
2022/02/22 18:21:32;;;;;;;4.97;1.83;;;7.60;99.90;;;;;;20667275;28;20054;-46
2022/02/22 18:31:34;;;;;;;6.75;1.05;;;7.40;99.90;;;;;;20670259;28;20046;-46
2022/02/22 18:41:35;;;;;;;4.25;1.80;;;7.30;99.90;;;;;;20676367;28;20049;-46
2022/02/22 18:51:37;;;;;;;4.07;0.82;;;7.20;99.90;;;;;;20661437;28;20380;-46
2022/02/22 19:01:39;;;;;;;3.33;1.30;;;7.20;99.90;;;;;;20662057;28;20065;-47
2022/02/22 19:11:40;;;;;;;7.13;1.10;;;7.20;99.90;;;;;;20663496;28;20034;-46
2022/02/22 19:21:41;;;;;;;2.75;1.25;;;7.10;99.90;;;;;;20656664;28;20050;-46
2022/02/22 19:31:42;;;;;;;3.63;1.17;;;7.00;99.90;;;;;;20657689;28;20045;-46
2022/02/22 19:41:43;;;;;;;8.70;1.45;;;7.00;99.90;;;;;;20617490;28;20033;-46
2022/02/22 19:51:45;;;;;;;3.92;0.95;;;7.10;99.90;;;;;;20661697;28;20503;-46
2022/02/22 20:01:46;;;;;;;5.63;0.73;;;7.10;99.90;;;;;;20654904;28;20042;-46
2022/02/22 20:11:47;;;;;;;1.83;0.98;;;7.20;99.90;;;;;;20644668;28;20042;-46
2022/02/22 20:21:48;;;;;;;4.07;1.00;;;7.40;99.90;;;;;;20649205;28;20046;-46
2022/02/22 20:31:49;;;;;;;3.17;0.60;;;7.50;99.90;;;;;;20651455;28;20073;-46
2022/02/22 20:41:51;;;;;;;2.00;0.43;;;7.60;99.90;;;;;;20648122;28;20042;-46
2022/02/22 20:51:52;;;;;;;8.50;2.58;;;7.50;99.90;;;;;;20631517;28;20030;-46
2022/02/22 21:01:54;;;;;;;5.15;1.08;;;7.40;99.90;;;;;;20660129;28;20698;-46
2022/02/22 21:11:55;;;;;;;4.18;1.35;;;7.30;99.90;;;;;;20621161;28;20030;-46
2022/02/22 21:21:56;;;;;;;6.07;0.80;;;7.20;99.90;;;;;;20646524;28;20498;-46
2022/02/22 21:31:59;;;;;;;4.00;0.47;;;7.30;99.90;;;;;;20646919;28;20414;-46
2022/02/22 21:42:00;;;;;;;6.20;1.25;;;7.30;99.90;;;;;;20650194;28;20060;-46
2022/02/22 21:52:01;;;;;;;6.72;0.73;;;7.30;99.90;;;;;;20663727;28;20383;-46
2022/02/22 22:02:04;;;;;;;5.53;1.55;;;7.40;99.90;;;;;;20657586;28;20402;-46
2022/02/22 22:12:06;;;;;;;1.33;0.60;;;7.30;99.90;;;;;;20655802;28;20041;-46
2022/02/22 22:22:10;;;;;;;4.32;0.75;;;7.40;99.90;;;;;;20664499;28;20053;-46
2022/02/22 22:32:11;;;;;;;6.50;1.15;;;7.30;99.90;;;;;;20653498;28;20383;-46
2022/02/22 22:42:13;;;;;;;3.58;0.85;;;7.30;99.90;;;;;;20637654;28;21548;-46
2022/02/22 22:52:14;;;;;;;5.70;1.20;;;7.20;99.90;;;;;;20649239;28;20026;-46
2022/02/22 23:02:15;;;;;;;4.72;0.60;;;7.00;99.90;;;;;;20642591;28;20054;-46
2022/02/22 23:22:36;;;;;;;3.90;0.68;;;6.80;99.90;;;;;;20640121;28;20517;-46
2022/02/22 23:32:37;;;;;;;8.88;1.77;;;6.80;99.90;;;;;;20642238;28;20414;-46
2022/02/22 23:42:38;;;;;;;3.28;0.90;;;6.70;99.90;;;;;;20649841;28;20064;-46
2022/02/22 23:52:39;;;;;;;3.05;1.23;;;6.70;99.90;;;;;;20650191;28;20415;-46
